createdAt,value
2019-02-24T00:01:19.050Z,2.20
2019-02-24T00:03:48.997Z,2.33
2019-02-24T00:06:18.909Z,2.00
2019-02-24T00:08:48.861Z,2.00
2019-02-24T00:11:18.180Z,2.37
2019-02-24T00:13:47.686Z,2.03
2019-02-24T00:16:16.825Z,2.20
2019-02-24T00:18:45.995Z,2.20
2019-02-24T00:21:15.193Z,2.13
2019-02-24T00:23:44.974Z,2.57
2019-02-24T00:26:14.273Z,2.27
2019-02-24T00:28:44.041Z,2.20
2019-02-24T00:31:13.894Z,2.00
2019-02-24T00:33:43.817Z,1.97
2019-02-24T00:36:13.659Z,2.00
2019-02-24T00:38:43.800Z,2.20
2019-02-24T00:41:13.097Z,1.87
2019-02-24T00:43:42.343Z,1.90
2019-02-24T00:46:11.541Z,2.17
2019-02-24T00:48:40.720Z,2.17
2019-02-24T00:51:09.921Z,1.90
2019-02-24T00:53:39.815Z,2.33
2019-02-24T00:56:09.733Z,2.20
2019-02-24T00:58:39.036Z,1.60
2019-02-24T01:01:08.295Z,1.90
2019-02-24T01:03:38.129Z,2.50
2019-02-24T01:06:07.964Z,2.00
2019-02-24T01:08:37.817Z,2.40
2019-02-24T01:11:07.759Z,2.40
2019-02-24T01:13:37.605Z,2.13
2019-02-24T01:16:06.829Z,2.00
2019-02-24T01:18:36.946Z,2.60
2019-02-24T01:21:06.869Z,2.07
2019-02-24T01:23:36.757Z,2.07
2019-02-24T01:26:06.660Z,2.50
2019-02-24T01:28:35.989Z,2.13
2019-02-24T01:31:05.821Z,2.00
2019-02-24T01:33:35.786Z,2.20
2019-02-24T01:36:05.693Z,2.60
2019-02-24T01:38:35.634Z,2.30
2019-02-24T01:41:05.924Z,2.03
2019-02-24T01:43:35.866Z,2.57
2019-02-24T01:46:05.094Z,2.37
2019-02-24T01:48:34.955Z,1.90
2019-02-24T01:51:04.885Z,2.00
2019-02-24T01:53:34.785Z,1.90
2019-02-24T01:56:04.649Z,2.30
2019-02-24T01:58:35.360Z,2.00
2019-02-24T02:01:04.881Z,1.50
2019-02-24T02:03:34.444Z,2.53
2019-02-24T02:06:03.697Z,2.50
2019-02-24T02:08:33.788Z,2.30
2019-02-24T02:11:03.722Z,1.97
2019-02-24T02:13:33.649Z,2.37
2019-02-24T02:16:03.866Z,2.60
2019-02-24T02:18:33.153Z,2.23
2019-02-24T02:21:02.420Z,2.17
2019-02-24T02:23:32.225Z,2.00
2019-02-24T02:26:02.118Z,2.10
2019-02-24T02:28:32.017Z,2.00
2019-02-24T02:31:01.969Z,2.00
2019-02-24T02:33:31.273Z,2.30
2019-02-24T02:36:01.337Z,1.93
2019-02-24T02:38:31.206Z,2.10
2019-02-24T02:41:01.146Z,2.53
2019-02-24T02:43:31.079Z,2.10
2019-02-24T02:46:00.435Z,1.87
2019-02-24T02:48:29.638Z,2.27
2019-02-24T02:50:59.421Z,2.67
2019-02-24T02:53:29.363Z,2.63
2019-02-24T02:55:59.308Z,2.10
2019-02-24T02:58:28.616Z,2.83
2019-02-24T03:00:58.478Z,2.10
2019-02-24T03:03:27.804Z,1.93
2019-02-24T03:06:22.944Z,2.37
2019-02-24T03:08:53.059Z,2.40
2019-02-24T03:11:22.923Z,1.90
2019-02-24T03:13:52.209Z,2.30
2019-02-24T03:16:24.865Z,1.70
2019-02-24T03:18:55.010Z,2.27
2019-02-24T03:21:24.941Z,2.17
2019-02-24T03:23:54.262Z,2.27
2019-02-24T03:26:23.490Z,2.10
2019-02-24T03:28:52.729Z,2.13
2019-02-24T03:31:21.966Z,2.00
2019-02-24T03:33:51.773Z,2.33
2019-02-24T03:36:21.707Z,2.10
2019-02-24T03:38:51.637Z,2.40
2019-02-24T03:41:21.599Z,2.20
2019-02-24T03:43:51.505Z,2.60
2019-02-24T03:46:21.446Z,2.23
2019-02-24T03:48:50.686Z,2.50
2019-02-24T03:51:20.584Z,2.43
2019-02-24T03:53:50.767Z,2.23
2019-02-24T03:56:20.370Z,1.77
2019-02-24T03:58:50.212Z,2.50
2019-02-24T04:01:20.282Z,2.37
2019-02-24T04:03:49.575Z,2.17
2019-02-24T04:06:18.802Z,2.60
2019-02-24T04:08:48.947Z,2.33
2019-02-24T04:11:18.923Z,2.17
2019-02-24T04:13:48.822Z,2.73
2019-02-24T04:16:18.758Z,2.30
2019-02-24T04:18:50.717Z,2.67
2019-02-24T04:21:20.018Z,2.10
2019-02-24T04:23:49.834Z,2.00
2019-02-24T04:26:19.151Z,1.80
2019-02-24T04:28:48.355Z,2.10
2019-02-24T04:31:17.597Z,2.47
2019-02-24T04:33:46.762Z,2.10
2019-02-24T04:36:16.602Z,1.97
2019-02-24T04:38:45.918Z,2.90
2019-02-24T04:41:15.150Z,2.47
2019-02-24T04:43:44.381Z,2.23
2019-02-24T04:46:14.551Z,2.60
2019-02-24T04:48:44.482Z,2.63
2019-02-24T04:51:13.788Z,2.00
2019-02-24T04:53:43.689Z,2.40
2019-02-24T04:56:13.599Z,2.57
2019-02-24T04:58:42.912Z,2.37
2019-02-24T05:01:12.424Z,2.10
2019-02-24T05:03:42.307Z,2.43
2019-02-24T05:06:12.230Z,1.83
2019-02-24T05:08:42.178Z,2.23
2019-02-24T05:11:12.219Z,3.17
2019-02-24T05:13:41.587Z,2.57
2019-02-24T05:16:10.783Z,2.77
2019-02-24T05:18:40.018Z,2.87
2019-02-24T05:21:09.418Z,2.33
2019-02-24T05:23:38.654Z,2.63
2019-02-24T05:26:08.486Z,2.40
2019-02-24T05:28:37.801Z,2.40
2019-02-24T05:31:07.775Z,2.80
2019-02-24T05:33:37.114Z,2.73
2019-02-24T05:36:06.325Z,2.67
2019-02-24T05:38:36.133Z,2.20
2019-02-24T05:41:06.278Z,2.10
2019-02-24T05:43:36.540Z,2.73
2019-02-24T05:46:06.442Z,2.30
2019-02-24T05:48:35.775Z,2.40
2019-02-24T05:51:04.914Z,2.20
2019-02-24T05:53:34.770Z,2.00
2019-02-24T05:56:04.028Z,2.30
2019-02-24T05:58:33.844Z,2.53
2019-02-24T06:01:03.792Z,2.47
2019-02-24T06:03:33.108Z,2.77
2019-02-24T06:06:02.838Z,2.40
2019-02-24T06:08:32.231Z,2.57
2019-02-24T06:11:02.028Z,2.60
2019-02-24T06:13:32.034Z,2.33
2019-02-24T06:16:01.857Z,2.70
2019-02-24T06:18:32.094Z,2.83
2019-02-24T06:21:02.027Z,2.77
2019-02-24T06:23:31.965Z,2.33
2019-02-24T06:26:01.286Z,2.30
2019-02-24T06:28:31.177Z,2.40
2019-02-24T06:31:00.519Z,2.10
2019-02-24T06:33:30.340Z,2.37
2019-02-24T06:36:00.249Z,2.23
2019-02-24T06:38:29.578Z,2.63
2019-02-24T06:41:00.040Z,2.90
2019-02-24T06:43:30.629Z,2.53
2019-02-24T06:46:00.552Z,2.20
2019-02-24T06:48:29.809Z,2.60
2019-02-24T06:51:02.668Z,2.17
2019-02-24T06:53:32.610Z,2.60
2019-02-24T06:56:01.870Z,1.90
2019-02-24T06:58:31.701Z,2.20
2019-02-24T07:01:01.012Z,2.27
2019-02-24T07:03:30.238Z,2.63
2019-02-24T07:05:59.977Z,2.50
2019-02-24T07:08:29.853Z,3.30
2019-02-24T07:10:59.776Z,2.80
2019-02-24T07:13:29.080Z,2.77
2019-02-24T07:15:58.863Z,2.33
2019-02-24T07:18:28.800Z,2.77
2019-02-24T07:20:58.729Z,2.73
2019-02-24T07:23:28.024Z,2.60
2019-02-24T07:25:57.784Z,3.40
2019-02-24T07:28:27.023Z,2.30
2019-02-24T07:30:56.857Z,2.40
2019-02-24T07:33:26.167Z,2.63
2019-02-24T07:35:55.393Z,3.43
2019-02-24T07:38:24.551Z,3.43
2019-02-24T07:40:53.822Z,2.60
2019-02-24T07:43:23.315Z,2.80
2019-02-24T07:45:53.228Z,3.20
2019-02-24T07:48:22.513Z,2.87
2019-02-24T07:50:52.269Z,3.50
2019-02-24T07:53:22.096Z,3.47
2019-02-24T07:55:52.080Z,3.03
2019-02-24T07:58:21.966Z,2.53
2019-02-24T08:00:52.122Z,3.67
2019-02-24T08:03:21.421Z,3.17
2019-02-24T08:05:51.245Z,4.07
2019-02-24T08:08:21.410Z,3.57
2019-02-24T08:10:51.273Z,3.53
2019-02-24T08:13:20.514Z,3.57
2019-02-24T08:15:49.744Z,3.20
2019-02-24T08:18:19.901Z,3.60
2019-02-24T08:20:50.039Z,3.80
2019-02-24T08:23:19.909Z,3.70
2019-02-24T08:25:49.259Z,3.87
2019-02-24T08:28:19.078Z,3.10
2019-02-24T08:30:49.010Z,3.43
2019-02-24T08:33:18.233Z,3.93
2019-02-24T08:35:48.178Z,3.27
2019-02-24T08:38:17.775Z,3.50
2019-02-24T08:40:47.561Z,3.20
2019-02-24T08:43:17.475Z,3.60
2019-02-24T08:45:47.428Z,3.83
2019-02-24T08:48:19.149Z,3.40
2019-02-24T08:50:48.301Z,3.70
2019-02-24T08:53:18.162Z,4.50
2019-02-24T08:55:48.095Z,4.20
2019-02-24T08:58:18.618Z,5.17
2019-02-24T09:00:51.004Z,4.37
2019-02-24T09:03:19.487Z,3.27
2019-02-24T09:05:49.049Z,4.00
2019-02-24T09:08:18.247Z,4.23
2019-02-24T09:10:47.495Z,4.00
2019-02-24T09:13:17.326Z,3.93
2019-02-24T09:15:48.365Z,4.00
2019-02-24T09:18:18.405Z,4.30
2019-02-24T09:20:48.400Z,4.30
2019-02-24T09:23:18.385Z,4.13
2019-02-24T09:25:47.764Z,4.70
2019-02-24T09:28:17.880Z,4.57
2019-02-24T09:30:47.838Z,4.40
2019-02-24T09:33:17.756Z,4.27
2019-02-24T09:35:47.867Z,4.13
2019-02-24T09:38:18.153Z,4.90
2019-02-24T09:40:47.457Z,3.87
2019-02-24T09:43:17.334Z,4.40
2019-02-24T09:45:47.288Z,3.67
2019-02-24T09:48:17.216Z,4.50
2019-02-24T09:50:47.095Z,4.33
2019-02-24T09:53:17.426Z,4.47
2019-02-24T09:55:47.340Z,4.47
2019-02-24T09:58:16.656Z,4.30
2019-02-24T10:00:46.223Z,4.30
2019-02-24T10:03:16.480Z,4.27
2019-02-24T10:05:47.967Z,4.57
2019-02-24T10:08:17.319Z,4.63
2019-02-24T10:10:47.121Z,4.37
2019-02-24T10:13:16.432Z,4.43
2019-02-24T10:15:46.180Z,4.00
2019-02-24T10:18:16.110Z,4.40
2019-02-24T10:20:46.087Z,4.17
2019-02-24T10:23:16.145Z,4.03
2019-02-24T10:25:46.034Z,4.20
2019-02-24T10:28:16.314Z,4.27
2019-02-24T10:30:46.564Z,4.27
2019-02-24T10:33:16.501Z,3.63
2019-02-24T10:35:46.148Z,3.83
2019-02-24T10:38:15.925Z,3.97
2019-02-24T10:40:45.172Z,3.87
2019-02-24T10:43:15.010Z,3.43
2019-02-24T10:45:44.906Z,3.70
2019-02-24T10:48:14.915Z,3.83
2019-02-24T10:50:44.282Z,4.73
2019-02-24T10:53:14.320Z,3.77
2019-02-24T10:55:44.243Z,3.67
2019-02-24T10:58:14.141Z,3.63
2019-02-24T11:00:44.093Z,3.70
2019-02-24T11:03:14.003Z,3.60
2019-02-24T11:05:43.350Z,3.57
2019-02-24T11:08:12.594Z,3.80
2019-02-24T11:10:41.861Z,3.87
2019-02-24T11:13:11.700Z,5.13
2019-02-24T11:15:41.674Z,3.33
2019-02-24T11:18:11.244Z,3.80
2019-02-24T11:20:41.119Z,3.93
2019-02-24T11:23:11.065Z,3.50
2019-02-24T11:25:41.318Z,3.80
2019-02-24T11:28:11.242Z,3.70
2019-02-24T11:30:41.176Z,3.80
2019-02-24T11:33:11.023Z,3.80
2019-02-24T11:35:40.981Z,5.10
2019-02-24T11:38:10.856Z,4.73
2019-02-24T11:40:40.196Z,3.50
2019-02-24T11:43:10.355Z,3.70
2019-02-24T11:45:39.689Z,4.40
2019-02-24T11:48:09.587Z,3.60
2019-02-24T11:50:39.274Z,3.27
2019-02-24T11:53:09.174Z,3.30
2019-02-24T11:55:39.179Z,4.03
2019-02-24T11:58:09.090Z,3.93
2019-02-24T12:00:39.193Z,3.43
2019-02-24T12:03:08.488Z,3.80
2019-02-24T12:05:38.341Z,3.60
2019-02-24T12:08:08.493Z,3.73
2019-02-24T12:10:37.858Z,3.90
2019-02-24T12:13:07.713Z,4.00
2019-02-24T12:15:37.038Z,3.80
2019-02-24T12:18:06.892Z,3.90
2019-02-24T12:20:36.809Z,3.97
2019-02-24T12:23:06.050Z,3.67
2019-02-24T12:25:35.294Z,3.87
2019-02-24T12:28:05.149Z,3.87
2019-02-24T12:30:34.477Z,3.47
2019-02-24T12:33:03.677Z,3.27
2019-02-24T12:35:33.416Z,4.17
2019-02-24T12:38:03.904Z,3.80
2019-02-24T12:40:33.242Z,3.60
2019-02-24T12:43:02.412Z,3.60
2019-02-24T12:45:31.610Z,4.33
2019-02-24T12:48:01.188Z,3.80
2019-02-24T12:50:31.088Z,4.07
2019-02-24T12:53:00.993Z,4.07
2019-02-24T12:55:30.637Z,3.43
2019-02-24T12:58:00.369Z,4.30
2019-02-24T13:00:30.301Z,4.50
2019-02-24T13:02:59.645Z,4.20
2019-02-24T13:05:29.467Z,3.53
2019-02-24T13:07:58.776Z,3.57
2019-02-24T13:10:27.990Z,3.67
2019-02-24T13:12:57.839Z,4.07
2019-02-24T13:15:28.267Z,3.47
2019-02-24T13:17:58.164Z,3.40
2019-02-24T13:20:27.504Z,3.30
2019-02-24T13:22:56.718Z,4.00
2019-02-24T13:25:26.592Z,3.57
2019-02-24T13:27:56.491Z,3.60
2019-02-24T13:30:26.471Z,4.10
2019-02-24T13:32:56.617Z,3.97
2019-02-24T13:35:26.483Z,3.00
2019-02-24T13:37:55.789Z,3.13
2019-02-24T13:40:25.558Z,3.30
2019-02-24T13:42:55.517Z,3.07
2019-02-24T13:45:26.900Z,3.77
2019-02-24T13:47:56.700Z,3.03
2019-02-24T13:50:26.544Z,3.00
2019-02-24T13:52:56.761Z,3.50
2019-02-24T13:55:26.045Z,3.83
2019-02-24T13:57:55.811Z,3.60
2019-02-24T14:00:25.160Z,3.50
2019-02-24T14:02:54.334Z,3.67
2019-02-24T14:05:23.653Z,3.47
2019-02-24T14:07:52.818Z,3.70
2019-02-24T14:10:22.890Z,3.23
2019-02-24T14:12:52.813Z,4.07
2019-02-24T14:15:22.722Z,3.57
2019-02-24T14:17:52.881Z,3.80
2019-02-24T14:20:22.154Z,3.63
2019-02-24T14:22:51.416Z,2.73
2019-02-24T14:25:20.613Z,3.37
2019-02-24T14:27:49.848Z,3.40
2019-02-24T14:30:19.113Z,3.80
2019-02-24T14:32:48.889Z,3.67
2019-02-24T14:35:18.198Z,3.97
2019-02-24T14:37:48.422Z,3.80
2019-02-24T14:40:18.329Z,3.40
2019-02-24T14:42:48.334Z,3.60
2019-02-24T14:45:17.632Z,4.03
2019-02-24T14:47:46.855Z,3.50
2019-02-24T14:50:16.413Z,3.23
2019-02-24T14:52:45.684Z,3.83
2019-02-24T14:55:15.716Z,4.20
2019-02-24T14:57:45.799Z,4.03
2019-02-24T15:00:15.736Z,3.90
2019-02-24T15:02:45.289Z,3.70
2019-02-24T15:05:16.526Z,3.50
2019-02-24T15:07:45.428Z,3.90
2019-02-24T15:10:15.953Z,3.33
2019-02-24T15:12:45.292Z,3.33
2019-02-24T15:15:15.867Z,3.23
2019-02-24T15:17:45.728Z,3.77
2019-02-24T15:20:17.680Z,3.50
2019-02-24T15:22:47.601Z,3.90
2019-02-24T15:25:17.284Z,3.50
2019-02-24T15:27:47.132Z,3.50
2019-02-24T15:30:18.218Z,3.57
2019-02-24T15:32:51.621Z,3.57
2019-02-24T15:35:19.678Z,3.30
2019-02-24T15:37:49.611Z,3.57
2019-02-24T15:40:19.602Z,3.53
2019-02-24T15:42:49.590Z,3.87
2019-02-24T15:45:19.007Z,3.33
2019-02-24T15:47:48.913Z,4.30
2019-02-24T15:50:18.863Z,3.83
2019-02-24T15:52:48.204Z,3.87
2019-02-24T15:55:17.476Z,4.20
2019-02-24T15:57:47.646Z,3.60
2019-02-24T16:00:17.575Z,3.67
2019-02-24T16:02:46.906Z,3.73
2019-02-24T16:05:16.731Z,3.80
2019-02-24T16:07:46.703Z,3.73
2019-02-24T16:10:17.134Z,3.73
2019-02-24T16:12:46.473Z,3.87
2019-02-24T16:15:15.843Z,4.20
2019-02-24T16:17:45.973Z,4.20
2019-02-24T16:20:18.374Z,3.50
2019-02-24T16:22:48.239Z,4.03
2019-02-24T16:25:17.924Z,3.43
2019-02-24T16:27:47.749Z,4.07
2019-02-24T16:30:17.705Z,4.13
2019-02-24T16:32:47.014Z,3.43
2019-02-24T16:35:16.259Z,3.80
2019-02-24T16:37:45.526Z,3.33
2019-02-24T16:40:17.342Z,3.53
2019-02-24T16:42:47.277Z,3.60
2019-02-24T16:45:16.578Z,3.90
2019-02-24T16:47:46.333Z,3.53
2019-02-24T16:50:17.025Z,3.93
2019-02-24T16:52:46.329Z,3.23
2019-02-24T16:55:16.160Z,3.60
2019-02-24T16:57:45.995Z,3.40
2019-02-24T17:00:17.072Z,4.37
2019-02-24T17:02:47.156Z,3.80
2019-02-24T17:05:16.409Z,4.47
2019-02-24T17:07:46.148Z,4.03
2019-02-24T17:10:18.381Z,3.83
2019-02-24T17:12:48.292Z,3.70
2019-02-24T17:15:17.631Z,4.03
2019-02-24T17:17:47.727Z,4.13
2019-02-24T17:20:18.395Z,4.03
2019-02-24T17:22:48.669Z,4.07
2019-02-24T17:25:18.071Z,4.27
2019-02-24T17:27:47.251Z,4.57
2019-02-24T17:30:16.496Z,4.13
2019-02-24T17:32:45.749Z,4.13
2019-02-24T17:35:15.639Z,4.20
2019-02-24T17:37:45.554Z,4.47
2019-02-24T17:40:16.074Z,4.67
2019-02-24T17:42:45.379Z,4.97
2019-02-24T17:45:14.667Z,4.53
2019-02-24T17:47:43.884Z,4.53
2019-02-24T17:50:13.966Z,4.70
2019-02-24T17:52:43.885Z,5.00
2019-02-24T17:55:14.267Z,4.30
2019-02-24T17:57:43.603Z,4.40
2019-02-24T18:00:14.740Z,4.40
2019-02-24T18:02:43.969Z,4.07
2019-02-24T18:05:13.827Z,4.17
2019-02-24T18:07:43.749Z,4.70
2019-02-24T18:10:13.001Z,4.63
2019-02-24T18:12:42.217Z,4.97
2019-02-24T18:15:11.607Z,4.07
2019-02-24T18:17:40.869Z,4.73
2019-02-24T18:20:10.795Z,4.60
2019-02-24T18:22:40.611Z,4.33
2019-02-24T18:25:11.063Z,4.63
2019-02-24T18:27:40.376Z,4.47
2019-02-24T18:30:13.461Z,4.57
2019-02-24T18:32:42.773Z,4.43
2019-02-24T18:35:12.629Z,4.23
2019-02-24T18:37:41.877Z,3.33
2019-02-24T18:40:12.402Z,4.50
2019-02-24T18:42:42.263Z,3.97
2019-02-24T18:45:12.528Z,3.83
2019-02-24T18:47:42.455Z,4.30
2019-02-24T18:50:12.526Z,4.27
2019-02-24T18:52:42.362Z,4.07
2019-02-24T18:55:11.702Z,4.03
2019-02-24T18:57:40.936Z,4.23
2019-02-24T19:00:11.739Z,3.97
2019-02-24T19:02:41.577Z,3.80
2019-02-24T19:05:11.506Z,4.20
2019-02-24T19:07:41.441Z,3.67
2019-02-24T19:10:13.117Z,3.53
2019-02-24T19:12:43.031Z,3.80
2019-02-24T19:15:15.508Z,4.00
2019-02-24T19:17:45.417Z,3.60
2019-02-24T19:20:15.513Z,4.50
2019-02-24T19:22:44.729Z,4.30
2019-02-24T19:25:14.668Z,4.10
2019-02-24T19:27:44.861Z,5.13
2019-02-24T19:30:14.711Z,4.83
2019-02-24T19:32:43.949Z,4.93
2019-02-24T19:35:14.025Z,4.87
2019-02-24T19:37:43.553Z,4.03
2019-02-24T19:40:15.192Z,4.40
2019-02-24T19:42:44.479Z,4.70
2019-02-24T19:45:15.669Z,5.20
2019-02-24T19:47:45.031Z,5.00
2019-02-24T19:50:16.386Z,5.23
2019-02-24T19:52:45.742Z,5.30
2019-02-24T19:55:15.009Z,5.67
2019-02-24T19:57:44.968Z,5.90
2019-02-24T20:00:17.904Z,5.93
2019-02-24T20:02:47.859Z,4.47
2019-02-24T20:05:17.192Z,5.13
2019-02-24T20:07:47.401Z,4.10
2019-02-24T20:10:19.749Z,4.77
2019-02-24T20:12:49.683Z,4.70
2019-02-24T20:15:19.744Z,4.60
2019-02-24T20:17:49.690Z,4.63
2019-02-24T20:20:19.037Z,4.40
2019-02-24T20:22:48.882Z,5.73
2019-02-24T20:25:18.221Z,5.10
2019-02-24T20:27:47.470Z,5.00
2019-02-24T20:30:19.831Z,4.87
2019-02-24T20:32:49.207Z,4.47
2019-02-24T20:35:19.146Z,4.97
2019-02-24T20:37:49.430Z,3.60
2019-02-24T20:40:19.395Z,4.13
2019-02-24T20:42:48.778Z,4.37
2019-02-24T20:45:18.437Z,3.83
2019-02-24T20:47:50.030Z,4.87
2019-02-24T20:50:20.693Z,4.03
2019-02-24T20:52:50.014Z,4.13
2019-02-24T20:55:19.796Z,4.40
2019-02-24T20:57:49.134Z,4.53
2019-02-24T21:00:28.081Z,4.17
2019-02-24T21:02:57.950Z,4.60
2019-02-24T21:05:27.326Z,4.40
2019-02-24T21:07:57.166Z,4.77
2019-02-24T21:10:27.069Z,4.37
2019-02-24T21:12:56.935Z,4.33
2019-02-24T21:15:26.865Z,4.50
2019-02-24T21:17:56.471Z,3.80
2019-02-24T21:20:26.393Z,4.13
2019-02-24T21:22:56.179Z,4.03
2019-02-24T21:25:26.182Z,4.17
2019-02-24T21:27:56.333Z,5.00
2019-02-24T21:30:26.576Z,4.10
2019-02-24T21:32:56.434Z,4.43
2019-02-24T21:35:26.266Z,4.57
2019-02-24T21:37:55.601Z,4.67
2019-02-24T21:40:25.376Z,5.43
2019-02-24T21:42:55.305Z,4.23
2019-02-24T21:45:24.564Z,4.23
2019-02-24T21:47:53.806Z,4.37
2019-02-24T21:50:23.005Z,5.17
2019-02-24T21:52:52.702Z,5.70
2019-02-24T21:55:21.901Z,4.90
2019-02-24T21:57:51.169Z,4.87
2019-02-24T22:00:22.017Z,4.60
2019-02-24T22:02:52.226Z,5.07
2019-02-24T22:05:22.381Z,5.73
2019-02-24T22:07:52.371Z,4.73
2019-02-24T22:10:22.217Z,5.33
2019-02-24T22:12:52.410Z,5.70
2019-02-24T22:15:21.702Z,4.77
2019-02-24T22:17:51.455Z,5.63
2019-02-24T22:20:20.825Z,6.07
2019-02-24T22:22:50.058Z,5.73
2019-02-24T22:25:19.898Z,4.80
2019-02-24T22:27:49.565Z,4.97
2019-02-24T22:30:19.319Z,4.70
2019-02-24T22:32:49.533Z,5.30
2019-02-24T22:35:19.491Z,5.33
2019-02-24T22:37:49.157Z,5.50
2019-02-24T22:40:18.994Z,5.57
2019-02-24T22:42:48.985Z,6.10
2019-02-24T22:45:19.073Z,5.53
2019-02-24T22:47:48.524Z,4.70
2019-02-24T22:50:18.529Z,5.67
2019-02-24T22:52:48.463Z,5.10
2019-02-24T22:55:17.811Z,4.97
2019-02-24T22:57:47.613Z,4.80
2019-02-24T23:01:09.947Z,5.53
2019-02-24T23:03:41.597Z,5.13
2019-02-24T23:06:10.908Z,5.00
2019-02-24T23:08:40.072Z,5.73
2019-02-24T23:11:09.961Z,5.37
2019-02-24T23:13:39.458Z,5.37
2019-02-24T23:16:09.449Z,5.47
2019-02-24T23:18:39.807Z,5.00
2019-02-24T23:21:09.174Z,5.13
2019-02-24T23:23:38.451Z,5.40
2019-02-24T23:26:08.265Z,5.50
2019-02-24T23:28:38.232Z,5.27
2019-02-24T23:31:07.471Z,5.47
2019-02-24T23:33:37.313Z,5.47
2019-02-24T23:36:07.211Z,5.50
2019-02-24T23:38:36.537Z,5.00
2019-02-24T23:41:05.664Z,5.53
2019-02-24T23:43:34.813Z,4.90
2019-02-24T23:46:04.546Z,4.90
2019-02-24T23:48:33.814Z,5.17
2019-02-24T23:51:03.056Z,5.57
2019-02-24T23:53:33.202Z,5.20
2019-02-24T23:56:02.526Z,5.00
2019-02-24T23:58:31.776Z,5.37
